Time;durP1;ratioP1;P1;durP2;ratioP2;P2;SDS_P1;SDS_P2;PMS_P1;PMS_P2;Temp;Humidity;BMP_temperature;BMP_pressure;BME280_temperature;BME280_humidity;BME280_pressure;Samples;Min_cycle;Max_cycle;Signal;HPM_P1;HPM_P2
2023/03/01 00:00:25;;;;;;;;;;;;;;;11.46;57.48;102900.44;1271685;23;587;-65
2023/03/01 00:01:16;;;;;;;;;;;;;;;11.47;57.51;102903.03;1270245;23;603;-65
2023/03/01 00:02:06;;;;;;;;;;;;;;;11.49;57.44;102898.50;1271904;23;1031;-65
2023/03/01 00:02:56;;;;;;;;;;;;;;;11.50;57.28;102902.03;1270133;23;622;-64
2023/03/01 00:03:47;;;;;;;;;;;;;;;11.49;57.98;102902.97;1271888;23;669;-64
2023/03/01 00:04:37;;;;;;;;;;;;;;;11.47;57.90;102902.16;1271761;23;618;-64
2023/03/01 00:05:28;;;;;;;;;;;;;;;11.46;57.89;102898.59;1270255;23;1904;-65
2023/03/01 00:06:18;;;;;;;;;;;;;;;11.46;58.11;102898.59;1272500;23;591;-65
2023/03/01 00:07:09;;;;;;;;;;;;;;;11.49;57.91;102906.50;1270198;23;669;-64
2023/03/01 00:07:59;;;;;;;;;;;;;;;11.47;58.25;102899.47;1271878;23;625;-64
2023/03/01 00:08:49;;;;;;;;;;;;;;;11.49;58.35;102905.63;1271745;23;713;-64
2023/03/01 00:09:40;;;;;;;;;;;;;;;11.48;57.95;102893.22;1271992;23;624;-64
2023/03/01 00:10:30;;;;;;;;;;;;;;;11.48;57.47;102902.09;1272427;23;599;-64
2023/03/01 00:11:21;;;;;;;;;;;;;;;11.47;57.89;102897.69;1271845;23;650;-65
2023/03/01 00:12:11;;;;;;;;;;;;;;;11.47;57.32;102894.13;1270014;23;602;-64
2023/03/01 00:13:02;;;;;;;;;;;;;;;11.45;57.72;102896.91;1271268;23;622;-65
2023/03/01 00:13:52;;;;;;;;;;;;;;;11.45;58.09;102901.38;1274422;23;641;-64
2023/03/01 00:14:43;;;;;;;;;;;;;;;11.45;57.76;102899.56;1271853;23;629;-64
2023/03/01 00:15:34;;;;;;;;;;;;;;;11.47;57.78;102897.69;1271726;23;670;-64
2023/03/01 00:16:25;;;;;;;;;;;;;;;11.48;57.80;102898.56;1271855;23;654;-64
2023/03/01 00:17:15;;;;;;;;;;;;;;;11.46;57.55;102890.59;1272547;23;596;-65
2023/03/01 00:18:06;;;;;;;;;;;;;;;11.45;58.07;102898.69;1271848;23;864;-64
2023/03/01 00:18:56;;;;;;;;;;;;;;;11.44;57.80;102900.50;1270035;23;626;-64
2023/03/01 00:19:47;;;;;;;;;;;;;;;11.43;57.73;102895.19;1271840;23;653;-65
2023/03/01 00:20:37;;;;;;;;;;;;;;;11.42;57.51;102894.34;1272581;23;646;-65
2023/03/01 00:21:28;;;;;;;;;;;;;;;11.41;58.25;102897.91;1271821;23;617;-65
2023/03/01 00:22:18;;;;;;;;;;;;;;;11.41;57.43;102891.72;1270587;23;571;-64
2023/03/01 00:23:08;;;;;;;;;;;;;;;11.40;57.66;102890.84;1271649;23;587;-64
2023/03/01 00:23:59;;;;;;;;;;;;;;;11.41;58.18;102884.56;1270308;23;639;-64
2023/03/01 00:24:49;;;;;;;;;;;;;;;11.41;57.93;102891.72;1271640;23;630;-65
2023/03/01 00:25:40;;;;;;;;;;;;;;;11.40;58.29;102895.31;1271649;23;1889;-65
2023/03/01 00:26:30;;;;;;;;;;;;;;;11.41;58.28;102895.25;1269677;23;640;-64
2023/03/01 00:27:20;;;;;;;;;;;;;;;11.39;58.31;102886.44;1271797;23;602;-64
2023/03/01 00:28:11;;;;;;;;;;;;;;;11.39;57.88;102888.22;1271919;23;635;-64
2023/03/01 00:29:01;;;;;;;;;;;;;;;11.41;58.51;102883.69;1269946;23;658;-64
2023/03/01 00:29:52;;;;;;;;;;;;;;;11.42;58.19;102883.66;1271756;23;653;-64
2023/03/01 00:30:42;;;;;;;;;;;;;;;11.41;57.56;102881.03;1272485;23;650;-64
2023/03/01 00:31:33;;;;;;;;;;;;;;;11.38;57.64;102886.47;1270156;23;638;-64
2023/03/01 00:32:23;;;;;;;;;;;;;;;11.39;57.53;102883.75;1270515;23;614;-65
2023/03/01 00:33:13;;;;;;;;;;;;;;;11.38;58.23;102879.34;1271689;23;638;-64
2023/03/01 00:34:04;;;;;;;;;;;;;;;11.40;58.28;102881.97;1271878;23;595;-64
2023/03/01 00:34:54;;;;;;;;;;;;;;;11.41;57.89;102881.03;1269945;23;611;-65
2023/03/01 00:35:45;;;;;;;;;;;;;;;11.38;58.12;102884.69;1271882;23;795;-64
2023/03/01 00:36:35;;;;;;;;;;;;;;;11.38;57.71;102884.69;1272030;23;646;-65
2023/03/01 00:37:26;;;;;;;;;;;;;;;11.38;57.88;102883.81;1271760;23;654;-65
2023/03/01 00:38:16;;;;;;;;;;;;;;;11.35;58.35;102879.44;1271852;23;614;-65
2023/03/01 00:39:06;;;;;;;;;;;;;;;11.37;57.87;102877.59;1271416;23;615;-65
2023/03/01 00:39:57;;;;;;;;;;;;;;;11.38;57.75;102876.66;1271843;23;720;-65
2023/03/01 00:40:47;;;;;;;;;;;;;;;11.37;58.16;102872.25;1269750;23;630;-65
2023/03/01 00:41:38;;;;;;;;;;;;;;;11.38;58.04;102882.00;1271761;23;740;-65
2023/03/01 00:42:28;;;;;;;;;;;;;;;11.37;57.50;102874.94;1269984;23;665;-65
2023/03/01 00:43:18;;;;;;;;;;;;;;;11.37;58.31;102874.06;1270077;23;602;-65
2023/03/01 00:44:09;;;;;;;;;;;;;;;11.37;58.25;102874.94;1271876;23;594;-66
2023/03/01 00:44:59;;;;;;;;;;;;;;;11.35;57.83;102870.56;1272455;23;779;-65
2023/03/01 00:45:50;;;;;;;;;;;;;;;11.34;57.70;102871.50;1271646;23;1928;-65
2023/03/01 00:46:40;;;;;;;;;;;;;;;11.35;58.41;102881.25;1272478;23;650;-65
2023/03/01 00:47:31;;;;;;;;;;;;;;;11.35;58.15;102879.44;1271753;23;611;-66
2023/03/01 00:48:21;;;;;;;;;;;;;;;11.35;58.22;102882.13;1271994;23;638;-65
2023/03/01 00:49:12;;;;;;;;;;;;;;;11.37;58.24;102882.06;1269907;23;642;-65
2023/03/01 00:50:02;;;;;;;;;;;;;;;11.35;57.79;102875.91;1270459;23;719;-65
2023/03/01 00:50:52;;;;;;;;;;;;;;;11.36;58.32;102880.31;1271662;23;693;-65
2023/03/01 00:51:43;;;;;;;;;;;;;;;11.34;57.96;102880.38;1271912;23;610;-65
2023/03/01 00:52:33;;;;;;;;;;;;;;;11.34;58.38;102876.81;1271607;23;606;-65
2023/03/01 00:53:24;;;;;;;;;;;;;;;11.31;57.87;102875.13;1271755;23;658;-65
2023/03/01 00:54:14;;;;;;;;;;;;;;;11.33;57.89;102873.28;1271417;23;658;-65
2023/03/01 00:55:05;;;;;;;;;;;;;;;11.33;58.09;102869.75;1271720;23;649;-65
2023/03/01 00:55:55;;;;;;;;;;;;;;;11.33;58.26;102870.63;1271929;23;677;-65
2023/03/01 00:56:45;;;;;;;;;;;;;;;11.32;57.83;102871.53;1271057;23;650;-65
2023/03/01 00:57:36;;;;;;;;;;;;;;;11.32;58.09;102876.88;1270757;23;638;-65
2023/03/01 00:58:26;;;;;;;;;;;;;;;11.31;58.45;102876.94;1272156;23;618;-65
2023/03/01 00:59:17;;;;;;;;;;;;;;;11.30;57.96;102873.38;1271879;23;621;-66
2023/03/01 01:00:09;;;;;;;;;;;;;;;11.29;57.97;102882.31;1271853;23;678;-65
2023/03/01 01:00:59;;;;;;;;;;;;;;;11.30;57.82;102872.50;1271585;23;622;-66
2023/03/01 01:01:50;;;;;;;;;;;;;;;11.31;58.30;102871.59;1271741;23;620;-65
2023/03/01 01:02:40;;;;;;;;;;;;;;;11.32;58.65;102876.88;1271649;23;603;-65
2023/03/01 01:03:31;;;;;;;;;;;;;;;11.32;58.21;102870.66;1271606;23;622;-65
2023/03/01 01:04:22;;;;;;;;;;;;;;;11.29;58.69;102871.66;1271839;23;669;-65
2023/03/01 01:05:12;;;;;;;;;;;;;;;11.29;58.61;102874.31;1271488;23;626;-65
2023/03/01 01:06:09;;;;;;;;;;;;;;;11.28;58.37;102869.94;1271647;23;606;-65
2023/03/01 01:06:59;;;;;;;;;;;;;;;11.29;58.10;102870.78;1270464;23;610;-65
2023/03/01 01:07:50;;;;;;;;;;;;;;;11.29;57.67;102874.31;1272594;23;661;-65
2023/03/01 01:08:40;;;;;;;;;;;;;;;11.29;58.33;102870.78;1271976;23;618;-65
2023/03/01 01:09:30;;;;;;;;;;;;;;;11.28;58.20;102869.94;1271550;23;650;-65
2023/03/01 01:10:21;;;;;;;;;;;;;;;11.28;58.19;102874.41;1269925;23;630;-65
2023/03/01 01:11:11;;;;;;;;;;;;;;;11.28;58.05;102867.25;1271086;23;675;-65
2023/03/01 01:12:02;;;;;;;;;;;;;;;11.28;57.91;102864.59;1271643;23;621;-65
2023/03/01 01:12:52;;;;;;;;;;;;;;;11.28;57.98;102869.94;1272474;23;631;-65
2023/03/01 01:13:43;;;;;;;;;;;;;;;11.28;57.97;102864.59;1271629;23;654;-65
2023/03/01 01:14:33;;;;;;;;;;;;;;;11.28;58.25;102858.38;1270413;23;653;-65
2023/03/01 01:15:23;;;;;;;;;;;;;;;11.26;57.62;102854.91;1271555;23;614;-66
2023/03/01 01:16:14;;;;;;;;;;;;;;;11.26;57.71;102855.75;1271823;23;629;-65
2023/03/01 01:17:04;;;;;;;;;;;;;;;11.26;58.44;102861.09;1271371;23;625;-65
2023/03/01 01:17:55;;;;;;;;;;;;;;;11.27;58.31;102856.63;1271764;23;610;-65
2023/03/01 01:18:45;;;;;;;;;;;;;;;11.29;57.98;102860.97;1271885;23;626;-65
2023/03/01 01:19:35;;;;;;;;;;;;;;;11.28;57.79;102853.03;1269976;23;666;-67
2023/03/01 01:20:26;;;;;;;;;;;;;;;11.27;58.21;102854.84;1271803;23;692;-65
2023/03/01 01:21:16;;;;;;;;;;;;;;;11.27;57.92;102848.63;1271446;23;649;-65
2023/03/01 01:22:07;;;;;;;;;;;;;;;11.26;58.44;102845.09;1271669;23;605;-65
2023/03/01 01:22:57;;;;;;;;;;;;;;;11.27;58.74;102851.31;1271868;23;657;-65
2023/03/01 01:23:48;;;;;;;;;;;;;;;11.24;58.54;102852.28;1270241;23;657;-65
2023/03/01 01:24:38;;;;;;;;;;;;;;;11.22;58.00;102848.78;1273448;23;641;-65
2023/03/01 01:25:29;;;;;;;;;;;;;;;11.23;57.73;102839.00;1269923;23;578;-66
2023/03/01 01:26:19;;;;;;;;;;;;;;;11.22;57.98;102843.44;1271851;23;629;-65
2023/03/01 01:27:09;;;;;;;;;;;;;;;11.22;57.62;102848.78;1271463;23;633;-65
2023/03/01 01:28:00;;;;;;;;;;;;;;;11.22;58.36;102839.91;1271719;23;606;-65
2023/03/01 01:28:50;;;;;;;;;;;;;;;11.19;58.36;102840.88;1271584;23;825;-65
2023/03/01 01:29:41;;;;;;;;;;;;;;;11.19;58.20;102846.22;1270100;23;643;-65
2023/03/01 01:30:32;;;;;;;;;;;;;;;11.19;57.87;102832.00;1271826;23;684;-65
2023/03/01 01:31:25;;;;;;;;;;;;;;;11.18;58.33;102841.81;1272274;23;614;-65
2023/03/01 01:32:16;;;;;;;;;;;;;;;11.19;58.07;102838.22;1270079;23;659;-65
2023/03/01 01:33:06;;;;;;;;;;;;;;;11.20;58.53;102847.09;1271891;23;626;-65
2023/03/01 01:33:57;;;;;;;;;;;;;;;11.18;57.99;102833.81;1271815;23;639;-65
2023/03/01 01:34:47;;;;;;;;;;;;;;;11.17;58.30;102833.84;1270382;23;669;-65
2023/03/01 01:35:37;;;;;;;;;;;;;;;11.18;58.37;102839.13;1271588;23;654;-65
2023/03/01 01:36:28;;;;;;;;;;;;;;;11.17;58.17;102834.72;1271625;23;646;-65
2023/03/01 01:37:19;;;;;;;;;;;;;;;11.16;58.54;102838.31;1270081;23;642;-65
2023/03/01 01:38:09;;;;;;;;;;;;;;;11.19;58.70;102837.34;1271874;23;681;-65
2023/03/01 01:39:00;;;;;;;;;;;;;;;11.17;57.75;102829.38;1271671;23;646;-65
2023/03/01 01:39:50;;;;;;;;;;;;;;;11.16;57.97;102832.97;1270313;23;658;-65
2023/03/01 01:40:40;;;;;;;;;;;;;;;11.17;57.82;102834.72;1269719;23;687;-65
2023/03/01 01:41:31;;;;;;;;;;;;;;;11.19;58.04;102832.00;1271726;23;626;-65
2023/03/01 01:42:21;;;;;;;;;;;;;;;11.17;58.05;102829.38;1271533;23;615;-65
2023/03/01 01:43:12;;;;;;;;;;;;;;;11.18;58.27;102838.28;1271671;23;614;-65
2023/03/01 01:44:02;;;;;;;;;;;;;;;11.16;57.90;102832.97;1271871;23;658;-65
2023/03/01 01:44:52;;;;;;;;;;;;;;;11.16;58.31;102829.44;1271664;23;614;-67
2023/03/01 01:45:43;;;;;;;;;;;;;;;11.17;58.69;102840.06;1271692;23;1944;-65
2023/03/01 01:46:33;;;;;;;;;;;;;;;11.18;58.46;102836.47;1272448;23;650;-65
2023/03/01 01:47:24;;;;;;;;;;;;;;;11.16;58.40;102827.66;1271679;23;622;-65
2023/03/01 01:48:14;;;;;;;;;;;;;;;11.16;58.18;102837.44;1273335;23;759;-65
2023/03/01 01:49:05;;;;;;;;;;;;;;;11.14;58.60;102833.03;1271678;23;690;-65
2023/03/01 01:49:55;;;;;;;;;;;;;;;11.14;58.46;102818.81;1271929;23;661;-65
2023/03/01 01:50:47;;;;;;;;;;;;;;;11.13;58.63;102825.94;1272023;23;821;-65
2023/03/01 01:51:38;;;;;;;;;;;;;;;11.13;58.39;102827.75;1271879;23;622;-65
2023/03/01 01:52:28;;;;;;;;;;;;;;;11.13;58.61;102822.41;1272293;23;639;-65
2023/03/01 01:53:19;;;;;;;;;;;;;;;11.12;58.50;102820.66;1271878;23;650;-65
2023/03/01 01:54:09;;;;;;;;;;;;;;;11.11;58.47;102824.25;1272170;23;611;-65
2023/03/01 01:55:00;;;;;;;;;;;;;;;11.09;58.37;102821.69;1271359;23;703;-65
2023/03/01 01:55:50;;;;;;;;;;;;;;;11.10;58.36;102823.41;1272211;23;633;-65
2023/03/01 01:56:40;;;;;;;;;;;;;;;11.07;58.21;102822.66;1272797;23;622;-63
2023/03/01 01:57:32;;;;;;;;;;;;;;;11.09;58.23;102828.81;1272222;23;677;-65
2023/03/01 01:58:23;;;;;;;;;;;;;;;11.10;58.23;102825.22;1271981;23;616;-65
2023/03/01 01:59:13;;;;;;;;;;;;;;;11.10;58.04;102827.88;1270740;23;658;-65
2023/03/01 02:00:03;;;;;;;;;;;;;;;11.10;58.43;102828.75;1270170;23;630;-65
2023/03/01 02:00:54;;;;;;;;;;;;;;;11.12;58.38;102820.66;1272193;23;696;-65
2023/03/01 02:01:44;;;;;;;;;;;;;;;11.10;58.55;102827.88;1274007;23;617;-66
2023/03/01 02:02:35;;;;;;;;;;;;;;;11.10;58.86;102825.22;1272066;23;626;-65
2023/03/01 02:03:28;;;;;;;;;;;;;;;11.10;58.14;102822.56;1270846;23;673;-65
2023/03/01 02:04:19;;;;;;;;;;;;;;;11.08;58.38;102822.59;1271912;23;649;-65
2023/03/01 02:05:10;;;;;;;;;;;;;;;11.08;58.38;102829.72;1272133;23;621;-65
2023/03/01 02:06:00;;;;;;;;;;;;;;;11.06;58.95;102821.78;1273542;23;1900;-65
2023/03/01 02:06:51;;;;;;;;;;;;;;;11.07;58.19;102823.53;1272015;23;673;-65
2023/03/01 02:07:41;;;;;;;;;;;;;;;11.07;58.38;102818.19;1273758;23;684;-65
2023/03/01 02:08:32;;;;;;;;;;;;;;;11.09;58.39;102826.16;1270532;23;665;-65
2023/03/01 02:09:22;;;;;;;;;;;;;;;11.09;58.37;102826.16;1270159;23;725;-65
2023/03/01 02:10:13;;;;;;;;;;;;;;;11.08;58.21;102819.06;1270374;23;602;-65
2023/03/01 02:11:04;;;;;;;;;;;;;;;11.08;57.94;102819.06;1271979;23;626;-66
2023/03/01 02:11:54;;;;;;;;;;;;;;;11.09;58.30;102821.69;1270708;23;666;-65
2023/03/01 02:12:44;;;;;;;;;;;;;;;11.10;58.02;102817.22;1272826;23;720;-65
2023/03/01 02:13:35;;;;;;;;;;;;;;;11.09;58.54;102813.66;1272212;23;658;-65
2023/03/01 02:14:26;;;;;;;;;;;;;;;11.09;58.25;102813.66;1272671;23;641;-65
2023/03/01 02:15:16;;;;;;;;;;;;;;;11.09;58.08;102820.81;1272184;23;654;-65
2023/03/01 02:16:07;;;;;;;;;;;;;;;11.10;58.40;102812.75;1270153;23;611;-65
2023/03/01 02:16:57;;;;;;;;;;;;;;;11.11;58.13;102813.59;1272190;23;625;-65
2023/03/01 02:17:48;;;;;;;;;;;;;;;11.10;58.23;102814.53;1271903;23;654;-64
2023/03/01 02:18:38;;;;;;;;;;;;;;;11.10;58.27;102811.88;1270703;23;583;-65
2023/03/01 02:19:28;;;;;;;;;;;;;;;11.10;58.15;102818.09;1272684;23;655;-65
2023/03/01 02:20:19;;;;;;;;;;;;;;;11.09;58.53;102816.34;1270572;23;653;-65
2023/03/01 02:21:09;;;;;;;;;;;;;;;11.09;58.49;102810.13;1272629;23;634;-65
2023/03/01 02:22:00;;;;;;;;;;;;;;;11.09;58.30;102813.66;1272085;23;610;-65
2023/03/01 02:22:50;;;;;;;;;;;;;;;11.08;58.09;102811.94;1271729;23;614;-65
2023/03/01 02:23:41;;;;;;;;;;;;;;;11.08;58.35;102816.41;1271332;23;664;-65
2023/03/01 02:24:31;;;;;;;;;;;;;;;11.09;57.87;102811.00;1272183;23;626;-65
2023/03/01 02:25:21;;;;;;;;;;;;;;;11.09;58.49;102810.13;1273620;23;617;-65
2023/03/01 02:26:13;;;;;;;;;;;;;;;11.08;58.58;102809.25;1272119;23;669;-65
2023/03/01 02:27:04;;;;;;;;;;;;;;;11.07;58.24;102815.53;1270611;23;650;-65
2023/03/01 02:27:54;;;;;;;;;;;;;;;11.07;58.50;102815.53;1273372;23;654;-65
2023/03/01 02:28:45;;;;;;;;;;;;;;;11.07;58.27;102812.84;1273718;23;630;-65
2023/03/01 02:29:35;;;;;;;;;;;;;;;11.06;58.25;102804.91;1270591;23;677;-65
2023/03/01 02:30:25;;;;;;;;;;;;;;;11.06;57.96;102819.13;1272737;23;697;-65
2023/03/01 02:32:25;;;;;;;;;;;;;;;11.04;58.29;102815.63;1272750;23;658;-66
2023/03/01 02:33:15;;;;;;;;;;;;;;;11.02;58.52;102808.59;1271165;23;619;-65
2023/03/01 02:34:06;;;;;;;;;;;;;;;11.02;58.38;102814.81;1273180;23;618;-65
2023/03/01 02:34:56;;;;;;;;;;;;;;;11.02;58.66;102808.59;1273600;23;816;-65
2023/03/01 02:35:47;;;;;;;;;;;;;;;11.03;58.44;102813.00;1271946;23;606;-65
2023/03/01 02:36:37;;;;;;;;;;;;;;;11.01;58.36;102806.84;1272302;23;642;-65
2023/03/01 02:37:28;;;;;;;;;;;;;;;11.01;58.25;102809.53;1271995;23;618;-65
2023/03/01 02:38:18;;;;;;;;;;;;;;;11.02;58.23;102808.59;1271444;23;626;-65
2023/03/01 02:39:14;;;;;;;;;;;;;;;11.02;58.07;102803.25;1271771;23;618;-65
2023/03/01 02:40:04;;;;;;;;;;;;;;;11.02;58.72;102800.59;1272028;23;709;-63
2023/03/01 02:40:54;;;;;;;;;;;;;;;11.00;58.10;102802.44;1270070;23;654;-65
2023/03/01 02:41:45;;;;;;;;;;;;;;;11.01;58.60;102798.84;1272059;23;724;-65
2023/03/01 02:42:35;;;;;;;;;;;;;;;10.98;58.83;102797.16;1270728;23;643;-65
2023/03/01 02:43:26;;;;;;;;;;;;;;;10.97;58.46;102794.53;1272589;23;657;-64
2023/03/01 02:44:16;;;;;;;;;;;;;;;10.95;58.54;102788.38;1273626;23;617;-63
2023/03/01 02:45:07;;;;;;;;;;;;;;;10.95;58.79;102789.25;1271892;23;731;-63
2023/03/01 02:45:57;;;;;;;;;;;;;;;10.97;58.72;102789.22;1272032;23;1926;-64
2023/03/01 02:46:47;;;;;;;;;;;;;;;10.98;58.65;102790.94;1272613;23;614;-64
2023/03/01 02:47:38;;;;;;;;;;;;;;;10.98;58.12;102785.63;1270824;23;649;-64
2023/03/01 02:48:28;;;;;;;;;;;;;;;10.97;58.68;102783.88;1272250;23;602;-64
2023/03/01 02:49:19;;;;;;;;;;;;;;;10.97;58.50;102797.22;1273653;23;661;-64
2023/03/01 02:50:09;;;;;;;;;;;;;;;10.97;58.13;102784.75;1272137;23;643;-64
2023/03/01 02:51:00;;;;;;;;;;;;;;;10.97;58.68;102787.41;1272809;23;630;-65
2023/03/01 02:51:50;;;;;;;;;;;;;;;10.97;58.59;102786.53;1270558;23;631;-64
2023/03/01 02:52:40;;;;;;;;;;;;;;;11.00;58.25;102786.44;1271208;23;651;-64
2023/03/01 02:53:31;;;;;;;;;;;;;;;10.99;58.64;102776.69;1272007;23;708;-64
2023/03/01 02:54:21;;;;;;;;;;;;;;;10.97;58.18;102789.22;1272144;23;685;-64
2023/03/01 02:55:12;;;;;;;;;;;;;;;10.96;58.83;102780.31;1270139;23;615;-65
2023/03/01 02:56:03;;;;;;;;;;;;;;;10.93;58.36;102788.44;1271765;23;609;-65
2023/03/01 02:56:53;;;;;;;;;;;;;;;10.90;58.54;102779.69;1272002;23;645;-65
2023/03/01 02:57:43;;;;;;;;;;;;;;;10.88;58.89;102778.88;1273598;23;676;-64
2023/03/01 02:58:44;;;;;;;;;;;;;;;10.89;58.93;102778.81;1272166;23;603;-64
2023/03/01 02:59:39;;;;;;;;;;;;;;;10.88;58.36;102782.41;1270207;23;611;-64
2023/03/01 03:00:29;;;;;;;;;;;;;;;10.90;58.25;102777.03;1272062;23;669;-65
2023/03/01 03:01:20;;;;;;;;;;;;;;;10.89;58.87;102775.28;1272437;23;704;-64
2023/03/01 03:02:10;;;;;;;;;;;;;;;10.90;58.37;102777.03;1271702;23;658;-64
2023/03/01 03:03:00;;;;;;;;;;;;;;;10.90;58.79;102783.22;1270527;23;628;-64
2023/03/01 03:03:51;;;;;;;;;;;;;;;10.92;58.69;102780.53;1273227;23;653;-64
2023/03/01 03:04:41;;;;;;;;;;;;;;;10.92;58.60;102780.53;1272403;23;676;-64
2023/03/01 03:05:32;;;;;;;;;;;;;;;10.90;58.56;102775.22;1271687;23;619;-64
2023/03/01 03:06:22;;;;;;;;;;;;;;;10.90;58.48;102771.69;1272045;23;633;-64
2023/03/01 03:07:13;;;;;;;;;;;;;;;10.89;59.11;102772.63;1271087;23;665;-64
2023/03/01 03:08:03;;;;;;;;;;;;;;;10.93;58.52;102779.56;1272032;23;614;-64
2023/03/01 03:08:54;;;;;;;;;;;;;;;10.92;58.98;102775.19;1271833;23;677;-64
2023/03/01 03:09:44;;;;;;;;;;;;;;;10.93;58.46;102779.56;1270519;23;625;-64
2023/03/01 03:10:35;;;;;;;;;;;;;;;10.92;58.08;102775.19;1271739;23;698;-64
2023/03/01 03:11:25;;;;;;;;;;;;;;;10.92;58.67;102773.38;1271929;23;634;-64
2023/03/01 03:12:15;;;;;;;;;;;;;;;10.91;58.10;102778.78;1272712;23;605;-65
2023/03/01 03:13:06;;;;;;;;;;;;;;;10.92;58.27;102775.19;1271917;23;835;-64
2023/03/01 03:13:57;;;;;;;;;;;;;;;10.90;58.40;102774.38;1271969;23;643;-64
2023/03/01 03:14:48;;;;;;;;;;;;;;;10.93;57.71;102774.22;1270894;23;636;-64
2023/03/01 03:15:39;;;;;;;;;;;;;;;10.93;58.08;102771.56;1271887;23;614;-65
2023/03/01 03:16:29;;;;;;;;;;;;;;;10.93;58.15;102772.44;1270511;23;649;-65
2023/03/01 03:17:20;;;;;;;;;;;;;;;10.94;58.13;102773.31;1269975;23;612;-65
2023/03/01 03:18:10;;;;;;;;;;;;;;;10.92;58.30;102769.84;1270288;23;638;-65
2023/03/01 03:19:04;;;;;;;;;;;;;;;10.92;58.39;102776.06;1272579;23;603;-65
2023/03/01 03:19:55;;;;;;;;;;;;;;;10.92;58.49;102775.19;1271819;23;685;-65
2023/03/01 03:20:45;;;;;;;;;;;;;;;10.90;58.14;102766.34;1272032;23;622;-66
2023/03/01 03:21:36;;;;;;;;;;;;;;;10.91;58.20;102768.09;1271267;23;595;-65
2023/03/01 03:22:28;;;;;;;;;;;;;;;10.89;58.64;102767.28;1271950;23;657;-65
2023/03/01 03:23:19;;;;;;;;;;;;;;;10.90;58.39;102761.03;1271704;23;594;-65
2023/03/01 03:24:09;;;;;;;;;;;;;;;10.90;58.56;102764.56;1271908;23;626;-65
2023/03/01 03:24:59;;;;;;;;;;;;;;;10.88;58.64;102763.75;1269840;23;599;-65
2023/03/01 03:25:50;;;;;;;;;;;;;;;10.88;58.25;102768.22;1271774;23;1920;-65
2023/03/01 03:26:40;;;;;;;;;;;;;;;10.89;58.63;102759.28;1271873;23;598;-65
2023/03/01 03:27:31;;;;;;;;;;;;;;;10.88;58.67;102762.88;1271809;23;610;-65
2023/03/01 03:28:22;;;;;;;;;;;;;;;10.89;58.44;102762.81;1271798;23;638;-65
2023/03/01 03:29:12;;;;;;;;;;;;;;;10.88;58.46;102757.53;1271961;23;688;-64
2023/03/01 03:30:03;;;;;;;;;;;;;;;10.88;58.49;102757.53;1272571;23;708;-65
2023/03/01 03:30:53;;;;;;;;;;;;;;;10.89;58.46;102754.81;1271849;23;645;-65
2023/03/01 03:31:44;;;;;;;;;;;;;;;10.89;58.48;102759.28;1272651;23;598;-65
2023/03/01 03:32:35;;;;;;;;;;;;;;;10.88;58.21;102752.22;1271873;23;692;-65
2023/03/01 03:33:25;;;;;;;;;;;;;;;10.86;58.54;102754.91;1270459;23;666;-65
2023/03/01 03:34:17;;;;;;;;;;;;;;;10.85;58.50;102755.84;1272614;23;645;-65
2023/03/01 03:35:11;;;;;;;;;;;;;;;10.87;58.43;102754.00;1270024;23;661;-65
2023/03/01 03:36:01;;;;;;;;;;;;;;;10.87;58.46;102750.47;1270000;23;662;-66
2023/03/01 03:36:56;;;;;;;;;;;;;;;10.84;58.61;102745.22;1272674;23;706;-66
2023/03/01 03:38:02;;;;;;;;;;;;;;;10.85;58.48;102744.31;1271057;23;646;-66
2023/03/01 03:38:52;;;;;;;;;;;;;;;10.86;58.66;102741.59;1273133;23;751;-66
2023/03/01 03:39:42;;;;;;;;;;;;;;;10.85;58.55;102746.97;1271701;23;595;-65
2023/03/01 03:40:33;;;;;;;;;;;;;;;10.85;58.15;102747.84;1271859;23;633;-64
2023/03/01 03:41:23;;;;;;;;;;;;;;;10.85;58.84;102744.31;1272058;23;649;-65
2023/03/01 03:42:14;;;;;;;;;;;;;;;10.83;58.92;102744.34;1271830;23;637;-65
2023/03/01 03:43:04;;;;;;;;;;;;;;;10.86;58.29;102746.06;1270551;23;615;-65
2023/03/01 03:43:55;;;;;;;;;;;;;;;10.87;58.34;102746.00;1272840;23;622;-65
2023/03/01 03:44:45;;;;;;;;;;;;;;;10.87;58.49;102750.47;1271939;23;642;-66
2023/03/01 03:45:35;;;;;;;;;;;;;;;10.87;58.74;102750.47;1269877;23;747;-65
2023/03/01 03:46:26;;;;;;;;;;;;;;;10.85;58.69;102750.50;1271867;23;659;-65
2023/03/01 03:47:16;;;;;;;;;;;;;;;10.85;58.45;102749.63;1272052;23;569;-65
2023/03/01 03:48:07;;;;;;;;;;;;;;;10.85;58.40;102752.31;1269956;23;658;-65
2023/03/01 03:48:57;;;;;;;;;;;;;;;10.86;58.32;102749.59;1272003;23;642;-65
2023/03/01 03:49:48;;;;;;;;;;;;;;;10.84;58.47;102748.78;1272578;23;1001;-66
2023/03/01 03:50:38;;;;;;;;;;;;;;;10.85;58.39;102746.97;1271316;23;669;-65
2023/03/01 03:51:28;;;;;;;;;;;;;;;10.85;58.50;102746.97;1272430;23;712;-65
2023/03/01 03:52:19;;;;;;;;;;;;;;;10.86;58.46;102743.38;1271766;23;591;-65
2023/03/01 03:53:09;;;;;;;;;;;;;;;10.87;58.35;102747.78;1271919;23;609;-65
2023/03/01 03:54:00;;;;;;;;;;;;;;;10.87;58.30;102739.78;1271758;23;610;-65
2023/03/01 03:54:50;;;;;;;;;;;;;;;10.88;58.35;102738.88;1270456;23;649;-65
2023/03/01 03:55:41;;;;;;;;;;;;;;;10.86;58.02;102740.72;1272608;23;595;-65
2023/03/01 03:56:31;;;;;;;;;;;;;;;10.84;58.32;102750.56;1271849;23;697;-65
2023/03/01 03:57:22;;;;;;;;;;;;;;;10.81;58.69;102743.53;1269977;23;630;-65
2023/03/01 03:58:12;;;;;;;;;;;;;;;10.81;58.52;102745.34;1271915;23;626;-65
2023/03/01 03:59:03;;;;;;;;;;;;;;;10.80;58.60;102749.78;1271508;23;1244;-64
2023/03/01 03:59:53;;;;;;;;;;;;;;;10.79;58.90;102740.94;1270337;23;582;-65
2023/03/01 04:00:43;;;;;;;;;;;;;;;10.78;58.99;102752.50;1272051;23;618;-65
2023/03/01 04:01:34;;;;;;;;;;;;;;;10.77;58.53;102742.78;1270100;23;647;-65
2023/03/01 04:02:25;;;;;;;;;;;;;;;10.78;58.81;102748.97;1271902;23;662;-65
2023/03/01 04:03:15;;;;;;;;;;;;;;;10.76;58.43;102738.38;1271867;23;724;-65
2023/03/01 04:04:07;;;;;;;;;;;;;;;10.76;59.10;102743.69;1269806;23;603;-65
2023/03/01 04:04:58;;;;;;;;;;;;;;;10.75;58.79;102744.63;1269848;23;804;-65
2023/03/01 04:05:50;;;;;;;;;;;;;;;10.75;59.14;102747.28;1270079;23;1947;-65
2023/03/01 04:06:40;;;;;;;;;;;;;;;10.77;58.49;102740.09;1270846;23;650;-65
2023/03/01 04:07:31;;;;;;;;;;;;;;;10.79;58.40;102743.59;1273111;23;661;-65
2023/03/01 04:08:21;;;;;;;;;;;;;;;10.78;58.44;102741.84;1272018;23;661;-65
2023/03/01 04:09:12;;;;;;;;;;;;;;;10.78;58.79;102739.19;1269866;23;618;-64
2023/03/01 04:10:02;;;;;;;;;;;;;;;10.79;58.37;102740.06;1270160;23;642;-64
2023/03/01 04:10:53;;;;;;;;;;;;;;;10.78;58.33;102747.19;1270412;23;685;-64
2023/03/01 04:11:43;;;;;;;;;;;;;;;10.77;58.49;102742.78;1272320;23;669;-64
2023/03/01 04:12:34;;;;;;;;;;;;;;;10.77;58.93;102740.09;1273434;23;613;-64
2023/03/01 04:13:25;;;;;;;;;;;;;;;10.78;58.79;102741.84;1269793;23;794;-64
2023/03/01 04:14:15;;;;;;;;;;;;;;;10.78;58.27;102746.31;1271797;23;680;-64
2023/03/01 04:15:12;;;;;;;;;;;;;;;10.77;58.97;102745.44;1269817;23;693;-64
2023/03/01 04:16:03;;;;;;;;;;;;;;;10.78;58.37;102741.84;1269803;23;646;-66
2023/03/01 04:16:53;;;;;;;;;;;;;;;10.77;58.79;102747.22;1271959;23;654;-63
2023/03/01 04:17:44;;;;;;;;;;;;;;;10.79;58.23;102748.06;1271633;23;886;-65
2023/03/01 04:18:34;;;;;;;;;;;;;;;10.77;58.50;102740.09;1271949;23;674;-64
2023/03/01 04:19:26;;;;;;;;;;;;;;;10.77;58.51;102748.09;1271504;23;665;-64
2023/03/01 04:20:17;;;;;;;;;;;;;;;10.76;58.54;102741.03;1271679;23;654;-64
2023/03/01 04:21:07;;;;;;;;;;;;;;;10.78;58.54;102747.19;1271761;23;607;-64
2023/03/01 04:21:58;;;;;;;;;;;;;;;10.77;58.41;102745.44;1272454;23;622;-64
2023/03/01 04:22:48;;;;;;;;;;;;;;;10.76;58.70;102745.50;1271803;23;670;-64
2023/03/01 04:23:40;;;;;;;;;;;;;;;10.75;58.29;102736.63;1270624;23;635;-64
2023/03/01 04:24:30;;;;;;;;;;;;;;;10.71;58.40;102740.34;1273509;23;755;-64
2023/03/01 04:25:21;;;;;;;;;;;;;;;10.72;58.25;102736.75;1271788;23;610;-64
2023/03/01 04:26:11;;;;;;;;;;;;;;;10.73;58.84;102738.50;1271866;23;662;-64
2023/03/01 04:27:02;;;;;;;;;;;;;;;10.72;58.56;102734.09;1271748;23;614;-64
2023/03/01 04:27:52;;;;;;;;;;;;;;;10.72;58.56;102736.75;1271876;23;658;-64
2023/03/01 04:28:44;;;;;;;;;;;;;;;10.70;58.66;102735.94;1271535;23;622;-64